sensor_id;sensor_type;location;lat;lon;timestamp;P1;durP1;ratioP1;P2;durP2;ratioP2
11675;SDS011;5894;42.768;23.404;2023-06-10T00:02:01;9.65;;;4.50;;
11675;SDS011;5894;42.768;23.404;2023-06-10T00:04:30;7.35;;;4.43;;
11675;SDS011;5894;42.768;23.404;2023-06-10T00:06:57;5.28;;;4.30;;
11675;SDS011;5894;42.768;23.404;2023-06-10T00:09:24;7.75;;;4.60;;
11675;SDS011;5894;42.768;23.404;2023-06-10T00:11:52;7.18;;;4.40;;
11675;SDS011;5894;42.768;23.404;2023-06-10T00:14:19;10.13;;;5.00;;
11675;SDS011;5894;42.768;23.404;2023-06-10T00:16:46;6.25;;;4.43;;
11675;SDS011;5894;42.768;23.404;2023-06-10T00:19:13;8.45;;;4.78;;
11675;SDS011;5894;42.768;23.404;2023-06-10T00:21:42;10.88;;;5.50;;
11675;SDS011;5894;42.768;23.404;2023-06-10T00:24:10;10.10;;;4.78;;
11675;SDS011;5894;42.768;23.404;2023-06-10T00:26:37;5.50;;;4.93;;
11675;SDS011;5894;42.768;23.404;2023-06-10T00:29:04;6.80;;;4.68;;
11675;SDS011;5894;42.768;23.404;2023-06-10T00:31:31;6.88;;;4.82;;
11675;SDS011;5894;42.768;23.404;2023-06-10T00:33:58;5.50;;;4.57;;
11675;SDS011;5894;42.768;23.404;2023-06-10T00:36:25;6.68;;;5.00;;
11675;SDS011;5894;42.768;23.404;2023-06-10T00:38:54;5.68;;;5.05;;
11675;SDS011;5894;42.768;23.404;2023-06-10T00:41:21;6.13;;;5.05;;
11675;SDS011;5894;42.768;23.404;2023-06-10T00:43:49;6.38;;;4.95;;
11675;SDS011;5894;42.768;23.404;2023-06-10T00:46:16;8.02;;;5.05;;
11675;SDS011;5894;42.768;23.404;2023-06-10T00:48:44;6.30;;;4.93;;
11675;SDS011;5894;42.768;23.404;2023-06-10T00:51:11;9.88;;;5.38;;
11675;SDS011;5894;42.768;23.404;2023-06-10T00:53:39;7.03;;;5.03;;
11675;SDS011;5894;42.768;23.404;2023-06-10T00:56:09;6.75;;;4.20;;
11675;SDS011;5894;42.768;23.404;2023-06-10T00:58:36;6.20;;;4.93;;
11675;SDS011;5894;42.768;23.404;2023-06-10T01:01:03;5.38;;;4.20;;
11675;SDS011;5894;42.768;23.404;2023-06-10T01:03:30;7.68;;;4.63;;
11675;SDS011;5894;42.768;23.404;2023-06-10T01:06:04;4.90;;;4.25;;
11675;SDS011;5894;42.768;23.404;2023-06-10T01:08:38;6.93;;;4.60;;
11675;SDS011;5894;42.768;23.404;2023-06-10T01:11:12;6.50;;;4.30;;
11675;SDS011;5894;42.768;23.404;2023-06-10T01:13:45;6.53;;;4.68;;
11675;SDS011;5894;42.768;23.404;2023-06-10T01:16:13;5.22;;;4.47;;
11675;SDS011;5894;42.768;23.404;2023-06-10T01:18:40;7.72;;;4.63;;
11675;SDS011;5894;42.768;23.404;2023-06-10T01:21:07;7.75;;;4.72;;
11675;SDS011;5894;42.768;23.404;2023-06-10T01:23:36;4.85;;;4.35;;
11675;SDS011;5894;42.768;23.404;2023-06-10T01:26:04;7.20;;;4.60;;
11675;SDS011;5894;42.768;23.404;2023-06-10T01:28:36;8.98;;;4.47;;
11675;SDS011;5894;42.768;23.404;2023-06-10T01:31:13;6.50;;;4.57;;
11675;SDS011;5894;42.768;23.404;2023-06-10T01:33:45;5.93;;;4.57;;
11675;SDS011;5894;42.768;23.404;2023-06-10T01:36:15;7.85;;;4.65;;
11675;SDS011;5894;42.768;23.404;2023-06-10T01:38:46;7.75;;;4.65;;
11675;SDS011;5894;42.768;23.404;2023-06-10T01:41:15;5.72;;;4.65;;
11675;SDS011;5894;42.768;23.404;2023-06-10T01:43:44;8.77;;;4.60;;
11675;SDS011;5894;42.768;23.404;2023-06-10T01:46:12;5.80;;;4.75;;
11675;SDS011;5894;42.768;23.404;2023-06-10T01:48:41;6.30;;;5.00;;
11675;SDS011;5894;42.768;23.404;2023-06-10T01:51:08;7.10;;;4.85;;
11675;SDS011;5894;42.768;23.404;2023-06-10T01:53:35;5.43;;;4.90;;
11675;SDS011;5894;42.768;23.404;2023-06-10T01:56:04;5.90;;;5.15;;
11675;SDS011;5894;42.768;23.404;2023-06-10T01:58:31;8.70;;;5.13;;
11675;SDS011;5894;42.768;23.404;2023-06-10T02:00:58;10.18;;;5.43;;
11675;SDS011;5894;42.768;23.404;2023-06-10T02:03:25;9.45;;;5.10;;
11675;SDS011;5894;42.768;23.404;2023-06-10T02:05:52;8.60;;;5.32;;
11675;SDS011;5894;42.768;23.404;2023-06-10T02:08:19;13.32;;;5.75;;
11675;SDS011;5894;42.768;23.404;2023-06-10T02:10:46;11.30;;;5.47;;
11675;SDS011;5894;42.768;23.404;2023-06-10T02:13:14;9.38;;;5.63;;
11675;SDS011;5894;42.768;23.404;2023-06-10T02:15:43;9.60;;;5.82;;
11675;SDS011;5894;42.768;23.404;2023-06-10T02:18:10;13.90;;;5.60;;
11675;SDS011;5894;42.768;23.404;2023-06-10T02:20:37;14.80;;;6.25;;
11675;SDS011;5894;42.768;23.404;2023-06-10T02:23:04;11.05;;;6.10;;
11675;SDS011;5894;42.768;23.404;2023-06-10T02:25:31;10.18;;;5.85;;
11675;SDS011;5894;42.768;23.404;2023-06-10T02:27:59;11.82;;;5.90;;
11675;SDS011;5894;42.768;23.404;2023-06-10T02:30:27;18.98;;;6.35;;
11675;SDS011;5894;42.768;23.404;2023-06-10T02:32:54;12.07;;;5.90;;
11675;SDS011;5894;42.768;23.404;2023-06-10T02:35:24;17.33;;;5.75;;
11675;SDS011;5894;42.768;23.404;2023-06-10T02:37:52;22.25;;;19.75;;
11675;SDS011;5894;42.768;23.404;2023-06-10T02:40:19;20.40;;;18.15;;
11675;SDS011;5894;42.768;23.404;2023-06-10T02:42:46;24.50;;;16.42;;
11675;SDS011;5894;42.768;23.404;2023-06-10T02:45:13;13.52;;;10.13;;
11675;SDS011;5894;42.768;23.404;2023-06-10T02:47:44;20.17;;;18.05;;
11675;SDS011;5894;42.768;23.404;2023-06-10T02:50:12;14.07;;;12.60;;
11675;SDS011;5894;42.768;23.404;2023-06-10T02:52:48;19.73;;;14.77;;
11675;SDS011;5894;42.768;23.404;2023-06-10T02:55:16;18.63;;;15.50;;
11675;SDS011;5894;42.768;23.404;2023-06-10T02:57:49;15.95;;;12.57;;
11675;SDS011;5894;42.768;23.404;2023-06-10T03:00:18;12.63;;;9.05;;
11675;SDS011;5894;42.768;23.404;2023-06-10T03:02:47;10.77;;;7.72;;
11675;SDS011;5894;42.768;23.404;2023-06-10T03:05:17;9.57;;;6.85;;
11675;SDS011;5894;42.768;23.404;2023-06-10T03:07:48;10.35;;;6.80;;
11675;SDS011;5894;42.768;23.404;2023-06-10T03:10:15;7.90;;;6.65;;
11675;SDS011;5894;42.768;23.404;2023-06-10T03:12:42;10.10;;;6.88;;
11675;SDS011;5894;42.768;23.404;2023-06-10T03:15:10;8.80;;;6.30;;
11675;SDS011;5894;42.768;23.404;2023-06-10T03:17:37;8.07;;;6.15;;
11675;SDS011;5894;42.768;23.404;2023-06-10T03:20:07;8.05;;;6.65;;
11675;SDS011;5894;42.768;23.404;2023-06-10T03:22:38;9.40;;;6.82;;
11675;SDS011;5894;42.768;23.404;2023-06-10T03:25:08;11.32;;;7.10;;
11675;SDS011;5894;42.768;23.404;2023-06-10T03:27:40;7.75;;;6.85;;
11675;SDS011;5894;42.768;23.404;2023-06-10T03:30:09;7.90;;;6.18;;
11675;SDS011;5894;42.768;23.404;2023-06-10T03:32:39;9.25;;;6.65;;
11675;SDS011;5894;42.768;23.404;2023-06-10T03:35:09;8.65;;;6.53;;
11675;SDS011;5894;42.768;23.404;2023-06-10T03:37:37;7.07;;;6.15;;
11675;SDS011;5894;42.768;23.404;2023-06-10T03:40:05;9.50;;;6.15;;
11675;SDS011;5894;42.768;23.404;2023-06-10T03:42:34;8.15;;;6.55;;
11675;SDS011;5894;42.768;23.404;2023-06-10T03:45:02;8.95;;;6.13;;
11675;SDS011;5894;42.768;23.404;2023-06-10T03:47:33;6.70;;;5.68;;
11675;SDS011;5894;42.768;23.404;2023-06-10T03:50:02;7.15;;;5.70;;
11675;SDS011;5894;42.768;23.404;2023-06-10T03:52:32;7.55;;;5.40;;
11675;SDS011;5894;42.768;23.404;2023-06-10T03:54:59;7.55;;;5.70;;
11675;SDS011;5894;42.768;23.404;2023-06-10T03:57:27;6.20;;;5.50;;
11675;SDS011;5894;42.768;23.404;2023-06-10T03:59:54;6.82;;;5.68;;
11675;SDS011;5894;42.768;23.404;2023-06-10T04:02:22;6.18;;;5.57;;
11675;SDS011;5894;42.768;23.404;2023-06-10T04:04:49;9.68;;;5.72;;
11675;SDS011;5894;42.768;23.404;2023-06-10T04:07:16;5.30;;;4.70;;
11675;SDS011;5894;42.768;23.404;2023-06-10T04:09:47;5.85;;;4.82;;
11675;SDS011;5894;42.768;23.404;2023-06-10T04:12:16;6.75;;;4.78;;
11675;SDS011;5894;42.768;23.404;2023-06-10T04:14:43;7.40;;;4.68;;
11675;SDS011;5894;42.768;23.404;2023-06-10T04:17:11;6.45;;;4.97;;
11675;SDS011;5894;42.768;23.404;2023-06-10T04:19:38;5.55;;;4.90;;
11675;SDS011;5894;42.768;23.404;2023-06-10T04:22:06;5.97;;;4.82;;
11675;SDS011;5894;42.768;23.404;2023-06-10T04:24:33;5.10;;;4.60;;
11675;SDS011;5894;42.768;23.404;2023-06-10T04:27:02;4.85;;;4.40;;
11675;SDS011;5894;42.768;23.404;2023-06-10T04:29:30;5.70;;;5.10;;
11675;SDS011;5894;42.768;23.404;2023-06-10T04:31:57;5.95;;;4.88;;
11675;SDS011;5894;42.768;23.404;2023-06-10T04:34:26;6.40;;;5.10;;
11675;SDS011;5894;42.768;23.404;2023-06-10T04:36:53;7.20;;;6.00;;
11675;SDS011;5894;42.768;23.404;2023-06-10T04:39:20;6.95;;;5.65;;
11675;SDS011;5894;42.768;23.404;2023-06-10T04:41:48;7.50;;;5.78;;
11675;SDS011;5894;42.768;23.404;2023-06-10T04:44:17;6.53;;;5.78;;
11675;SDS011;5894;42.768;23.404;2023-06-10T04:46:44;7.32;;;6.47;;
11675;SDS011;5894;42.768;23.404;2023-06-10T04:49:11;7.00;;;5.78;;
11675;SDS011;5894;42.768;23.404;2023-06-10T04:51:40;6.90;;;6.22;;
11675;SDS011;5894;42.768;23.404;2023-06-10T04:54:07;7.20;;;6.50;;
11675;SDS011;5894;42.768;23.404;2023-06-10T04:56:34;8.13;;;5.65;;
11675;SDS011;5894;42.768;23.404;2023-06-10T04:59:02;7.68;;;5.95;;
11675;SDS011;5894;42.768;23.404;2023-06-10T05:01:30;5.20;;;4.70;;
11675;SDS011;5894;42.768;23.404;2023-06-10T05:03:57;6.68;;;5.00;;
11675;SDS011;5894;42.768;23.404;2023-06-10T05:06:24;6.45;;;4.78;;
11675;SDS011;5894;42.768;23.404;2023-06-10T05:08:51;7.60;;;6.78;;
11675;SDS011;5894;42.768;23.404;2023-06-10T05:11:18;11.60;;;9.50;;
11675;SDS011;5894;42.768;23.404;2023-06-10T05:13:45;9.73;;;8.27;;
11675;SDS011;5894;42.768;23.404;2023-06-10T05:16:12;9.90;;;7.60;;
11675;SDS011;5894;42.768;23.404;2023-06-10T05:18:41;7.38;;;6.32;;
11675;SDS011;5894;42.768;23.404;2023-06-10T05:21:09;7.25;;;6.55;;
11675;SDS011;5894;42.768;23.404;2023-06-10T05:23:37;8.85;;;6.20;;
11675;SDS011;5894;42.768;23.404;2023-06-10T05:26:03;7.30;;;6.57;;
11675;SDS011;5894;42.768;23.404;2023-06-10T05:28:30;6.93;;;6.20;;
11675;SDS011;5894;42.768;23.404;2023-06-10T05:30:57;7.38;;;6.68;;
11675;SDS011;5894;42.768;23.404;2023-06-10T05:33:24;8.90;;;7.10;;
11675;SDS011;5894;42.768;23.404;2023-06-10T05:35:53;6.90;;;6.22;;
11675;SDS011;5894;42.768;23.404;2023-06-10T05:38:20;10.38;;;7.00;;
11675;SDS011;5894;42.768;23.404;2023-06-10T05:40:47;8.43;;;7.00;;
11675;SDS011;5894;42.768;23.404;2023-06-10T05:43:14;10.35;;;7.10;;
11675;SDS011;5894;42.768;23.404;2023-06-10T05:45:42;8.48;;;7.38;;
11675;SDS011;5894;42.768;23.404;2023-06-10T05:48:09;7.40;;;6.25;;
11675;SDS011;5894;42.768;23.404;2023-06-10T05:50:36;10.57;;;6.70;;
11675;SDS011;5894;42.768;23.404;2023-06-10T05:53:06;7.70;;;6.90;;
11675;SDS011;5894;42.768;23.404;2023-06-10T05:55:39;10.32;;;7.10;;
11675;SDS011;5894;42.768;23.404;2023-06-10T05:58:06;11.65;;;6.95;;
11675;SDS011;5894;42.768;23.404;2023-06-10T06:00:34;8.57;;;7.35;;
11675;SDS011;5894;42.768;23.404;2023-06-10T06:06:55;8.20;;;7.22;;
11675;SDS011;5894;42.768;23.404;2023-06-10T06:09:24;12.15;;;7.30;;
11675;SDS011;5894;42.768;23.404;2023-06-10T06:11:51;7.93;;;6.60;;
11675;SDS011;5894;42.768;23.404;2023-06-10T06:14:18;9.20;;;7.40;;
11675;SDS011;5894;42.768;23.404;2023-06-10T06:16:45;11.05;;;7.68;;
11675;SDS011;5894;42.768;23.404;2023-06-10T06:19:12;9.57;;;7.13;;
11675;SDS011;5894;42.768;23.404;2023-06-10T06:21:39;8.60;;;6.97;;
11675;SDS011;5894;42.768;23.404;2023-06-10T06:24:06;10.38;;;6.80;;
11675;SDS011;5894;42.768;23.404;2023-06-10T06:26:36;9.15;;;6.82;;
11675;SDS011;5894;42.768;23.404;2023-06-10T06:29:03;10.70;;;6.75;;
11675;SDS011;5894;42.768;23.404;2023-06-10T06:31:30;9.15;;;6.38;;
11675;SDS011;5894;42.768;23.404;2023-06-10T06:33:57;9.48;;;6.18;;
11675;SDS011;5894;42.768;23.404;2023-06-10T06:36:24;7.70;;;6.38;;
11675;SDS011;5894;42.768;23.404;2023-06-10T06:38:51;7.25;;;6.18;;
11675;SDS011;5894;42.768;23.404;2023-06-10T06:41:21;7.82;;;6.47;;
11675;SDS011;5894;42.768;23.404;2023-06-10T06:43:49;9.35;;;7.47;;
11675;SDS011;5894;42.768;23.404;2023-06-10T06:46:29;9.85;;;7.78;;
11675;SDS011;5894;42.768;23.404;2023-06-10T06:48:56;9.70;;;6.88;;
11675;SDS011;5894;42.768;23.404;2023-06-10T06:51:23;8.18;;;6.65;;
11675;SDS011;5894;42.768;23.404;2023-06-10T06:53:50;10.07;;;7.10;;
11675;SDS011;5894;42.768;23.404;2023-06-10T06:56:19;7.75;;;7.05;;
11675;SDS011;5894;42.768;23.404;2023-06-10T06:58:47;9.88;;;7.93;;
11675;SDS011;5894;42.768;23.404;2023-06-10T07:01:16;9.82;;;7.90;;
11675;SDS011;5894;42.768;23.404;2023-06-10T07:03:43;13.90;;;6.85;;
11675;SDS011;5894;42.768;23.404;2023-06-10T07:06:10;7.50;;;6.15;;
11675;SDS011;5894;42.768;23.404;2023-06-10T07:08:37;8.95;;;7.10;;
11675;SDS011;5894;42.768;23.404;2023-06-10T07:11:04;9.45;;;5.75;;
11675;SDS011;5894;42.768;23.404;2023-06-10T07:13:31;7.75;;;6.18;;
11675;SDS011;5894;42.768;23.404;2023-06-10T07:15:59;8.52;;;6.75;;
11675;SDS011;5894;42.768;23.404;2023-06-10T07:18:27;7.03;;;5.88;;
11675;SDS011;5894;42.768;23.404;2023-06-10T07:20:54;9.00;;;6.03;;
11675;SDS011;5894;42.768;23.404;2023-06-10T07:23:21;6.78;;;5.78;;
11675;SDS011;5894;42.768;23.404;2023-06-10T07:25:48;6.57;;;5.93;;
11675;SDS011;5894;42.768;23.404;2023-06-10T07:28:15;9.05;;;6.28;;
11675;SDS011;5894;42.768;23.404;2023-06-10T07:30:42;7.57;;;6.88;;
11675;SDS011;5894;42.768;23.404;2023-06-10T07:33:09;9.73;;;5.10;;
11675;SDS011;5894;42.768;23.404;2023-06-10T07:35:37;6.70;;;4.95;;
11675;SDS011;5894;42.768;23.404;2023-06-10T07:38:04;8.85;;;5.15;;
11675;SDS011;5894;42.768;23.404;2023-06-10T07:40:31;5.80;;;5.03;;
11675;SDS011;5894;42.768;23.404;2023-06-10T07:42:58;5.85;;;4.65;;
11675;SDS011;5894;42.768;23.404;2023-06-10T07:45:25;6.07;;;4.63;;
11675;SDS011;5894;42.768;23.404;2023-06-10T07:47:52;7.07;;;4.30;;
11675;SDS011;5894;42.768;23.404;2023-06-10T07:50:21;5.78;;;3.90;;
11675;SDS011;5894;42.768;23.404;2023-06-10T07:52:49;4.60;;;3.90;;
11675;SDS011;5894;42.768;23.404;2023-06-10T07:55:16;5.25;;;4.13;;
11675;SDS011;5894;42.768;23.404;2023-06-10T07:57:43;6.35;;;3.92;;
11675;SDS011;5894;42.768;23.404;2023-06-10T08:00:10;5.05;;;4.15;;
11675;SDS011;5894;42.768;23.404;2023-06-10T08:02:39;7.53;;;4.68;;
11675;SDS011;5894;42.768;23.404;2023-06-10T08:05:06;4.68;;;3.83;;
11675;SDS011;5894;42.768;23.404;2023-06-10T08:15:23;6.13;;;3.60;;
11675;SDS011;5894;42.768;23.404;2023-06-10T08:17:50;7.53;;;3.92;;
11675;SDS011;5894;42.768;23.404;2023-06-10T08:20:17;5.93;;;3.80;;
11675;SDS011;5894;42.768;23.404;2023-06-10T08:22:44;5.45;;;3.40;;
11675;SDS011;5894;42.768;23.404;2023-06-10T08:25:11;4.13;;;3.53;;
11675;SDS011;5894;42.768;23.404;2023-06-10T08:27:38;3.83;;;3.30;;
11675;SDS011;5894;42.768;23.404;2023-06-10T08:30:05;4.53;;;3.28;;
11675;SDS011;5894;42.768;23.404;2023-06-10T08:32:36;9.55;;;3.75;;
11675;SDS011;5894;42.768;23.404;2023-06-10T08:35:04;3.90;;;3.38;;
11675;SDS011;5894;42.768;23.404;2023-06-10T08:37:31;3.40;;;3.13;;
11675;SDS011;5894;42.768;23.404;2023-06-10T08:39:58;3.40;;;3.10;;
11675;SDS011;5894;42.768;23.404;2023-06-10T08:42:28;3.50;;;2.63;;
11675;SDS011;5894;42.768;23.404;2023-06-10T08:45:00;3.10;;;2.80;;
11675;SDS011;5894;42.768;23.404;2023-06-10T08:47:29;2.88;;;2.40;;
11675;SDS011;5894;42.768;23.404;2023-06-10T08:50:00;4.28;;;3.33;;
11675;SDS011;5894;42.768;23.404;2023-06-10T08:52:34;3.72;;;3.20;;
11675;SDS011;5894;42.768;23.404;2023-06-10T08:55:04;4.25;;;3.20;;
11675;SDS011;5894;42.768;23.404;2023-06-10T08:57:37;3.30;;;3.00;;
11675;SDS011;5894;42.768;23.404;2023-06-10T09:00:05;3.22;;;2.90;;
11675;SDS011;5894;42.768;23.404;2023-06-10T09:02:33;3.35;;;2.95;;
11675;SDS011;5894;42.768;23.404;2023-06-10T09:05:03;3.08;;;2.78;;
11675;SDS011;5894;42.768;23.404;2023-06-10T09:07:31;3.45;;;2.75;;
11675;SDS011;5894;42.768;23.404;2023-06-10T09:10:00;3.58;;;3.08;;
11675;SDS011;5894;42.768;23.404;2023-06-10T09:12:29;6.05;;;3.25;;
11675;SDS011;5894;42.768;23.404;2023-06-10T09:14:56;4.55;;;3.05;;
11675;SDS011;5894;42.768;23.404;2023-06-10T09:17:23;3.97;;;3.20;;
11675;SDS011;5894;42.768;23.404;2023-06-10T09:19:50;3.53;;;3.22;;
11675;SDS011;5894;42.768;23.404;2023-06-10T09:22:22;3.63;;;3.28;;
11675;SDS011;5894;42.768;23.404;2023-06-10T09:24:49;4.70;;;3.20;;
11675;SDS011;5894;42.768;23.404;2023-06-10T09:27:16;5.93;;;2.90;;
11675;SDS011;5894;42.768;23.404;2023-06-10T09:29:46;3.90;;;3.13;;
11675;SDS011;5894;42.768;23.404;2023-06-10T09:32:14;4.10;;;3.70;;
11675;SDS011;5894;42.768;23.404;2023-06-10T09:34:43;6.05;;;3.67;;
11675;SDS011;5894;42.768;23.404;2023-06-10T09:37:11;3.53;;;3.22;;
11675;SDS011;5894;42.768;23.404;2023-06-10T09:39:40;4.40;;;3.50;;
11675;SDS011;5894;42.768;23.404;2023-06-10T09:42:15;4.68;;;3.60;;
11675;SDS011;5894;42.768;23.404;2023-06-10T09:44:48;4.05;;;3.40;;
11675;SDS011;5894;42.768;23.404;2023-06-10T09:47:19;6.43;;;3.55;;
11675;SDS011;5894;42.768;23.404;2023-06-10T09:49:47;3.53;;;3.22;;
11675;SDS011;5894;42.768;23.404;2023-06-10T09:52:14;3.90;;;3.08;;
11675;SDS011;5894;42.768;23.404;2023-06-10T09:54:49;4.35;;;3.58;;
11675;SDS011;5894;42.768;23.404;2023-06-10T09:57:17;4.82;;;3.45;;
11675;SDS011;5894;42.768;23.404;2023-06-10T09:59:44;6.15;;;3.53;;
11675;SDS011;5894;42.768;23.404;2023-06-10T10:02:13;3.70;;;3.10;;
11675;SDS011;5894;42.768;23.404;2023-06-10T10:04:41;3.65;;;3.00;;
11675;SDS011;5894;42.768;23.404;2023-06-10T10:07:08;3.90;;;3.20;;
11675;SDS011;5894;42.768;23.404;2023-06-10T10:09:36;4.13;;;3.10;;
11675;SDS011;5894;42.768;23.404;2023-06-10T10:12:05;3.92;;;3.60;;
11675;SDS011;5894;42.768;23.404;2023-06-10T10:14:37;10.68;;;3.83;;
11675;SDS011;5894;42.768;23.404;2023-06-10T10:17:04;3.70;;;3.40;;
11675;SDS011;5894;42.768;23.404;2023-06-10T10:19:38;4.45;;;3.45;;
11675;SDS011;5894;42.768;23.404;2023-06-10T10:22:14;6.97;;;3.55;;
11675;SDS011;5894;42.768;23.404;2023-06-10T10:24:46;4.40;;;2.95;;
11675;SDS011;5894;42.768;23.404;2023-06-10T10:27:20;4.35;;;3.00;;
11675;SDS011;5894;42.768;23.404;2023-06-10T10:29:52;3.33;;;2.72;;
11675;SDS011;5894;42.768;23.404;2023-06-10T10:32:20;2.92;;;2.55;;
11675;SDS011;5894;42.768;23.404;2023-06-10T10:34:54;3.10;;;2.75;;
11675;SDS011;5894;42.768;23.404;2023-06-10T10:37:27;3.40;;;2.90;;
11675;SDS011;5894;42.768;23.404;2023-06-10T10:39:54;4.03;;;2.72;;
11675;SDS011;5894;42.768;23.404;2023-06-10T10:42:24;4.47;;;2.80;;
11675;SDS011;5894;42.768;23.404;2023-06-10T10:44:52;5.43;;;2.95;;
11675;SDS011;5894;42.768;23.404;2023-06-10T10:47:20;3.33;;;2.58;;
11675;SDS011;5894;42.768;23.404;2023-06-10T10:49:48;4.18;;;2.63;;
11675;SDS011;5894;42.768;23.404;2023-06-10T10:52:18;4.05;;;2.80;;
11675;SDS011;5894;42.768;23.404;2023-06-10T10:54:45;2.70;;;2.50;;
11675;SDS011;5894;42.768;23.404;2023-06-10T10:57:13;4.45;;;3.20;;
11675;SDS011;5894;42.768;23.404;2023-06-10T10:59:53;3.00;;;2.70;;
11675;SDS011;5894;42.768;23.404;2023-06-10T11:02:34;4.38;;;3.22;;
11675;SDS011;5894;42.768;23.404;2023-06-10T11:05:04;3.45;;;3.15;;
11675;SDS011;5894;42.768;23.404;2023-06-10T11:07:32;3.63;;;3.17;;
11675;SDS011;5894;42.768;23.404;2023-06-10T11:10:02;4.32;;;3.05;;
11675;SDS011;5894;42.768;23.404;2023-06-10T11:15:20;2.60;;;2.40;;
11675;SDS011;5894;42.768;23.404;2023-06-10T11:20:53;3.42;;;2.60;;
11675;SDS011;5894;42.768;23.404;2023-06-10T11:23:25;4.15;;;2.28;;
11675;SDS011;5894;42.768;23.404;2023-06-10T11:26:17;4.47;;;2.58;;
11675;SDS011;5894;42.768;23.404;2023-06-10T11:29:01;3.83;;;2.30;;
11675;SDS011;5894;42.768;23.404;2023-06-10T11:31:32;2.53;;;2.20;;
11675;SDS011;5894;42.768;23.404;2023-06-10T11:34:01;3.72;;;2.50;;
11675;SDS011;5894;42.768;23.404;2023-06-10T11:36:30;2.78;;;2.17;;
11675;SDS011;5894;42.768;23.404;2023-06-10T11:38:58;2.72;;;2.50;;
11675;SDS011;5894;42.768;23.404;2023-06-10T11:41:27;3.88;;;2.40;;
11675;SDS011;5894;42.768;23.404;2023-06-10T11:43:56;2.60;;;2.20;;
11675;SDS011;5894;42.768;23.404;2023-06-10T11:46:27;6.43;;;2.78;;
11675;SDS011;5894;42.768;23.404;2023-06-10T11:48:56;7.00;;;2.63;;
11675;SDS011;5894;42.768;23.404;2023-06-10T11:51:24;6.80;;;2.28;;
11675;SDS011;5894;42.768;23.404;2023-06-10T11:53:53;34.08;;;4.82;;
11675;SDS011;5894;42.768;23.404;2023-06-10T11:56:21;16.38;;;2.95;;
11675;SDS011;5894;42.768;23.404;2023-06-10T11:58:51;7.25;;;2.42;;
11675;SDS011;5894;42.768;23.404;2023-06-10T12:01:20;3.05;;;2.75;;
11675;SDS011;5894;42.768;23.404;2023-06-10T12:03:57;3.63;;;2.22;;
11675;SDS011;5894;42.768;23.404;2023-06-10T12:06:25;3.30;;;2.45;;
11675;SDS011;5894;42.768;23.404;2023-06-10T12:08:53;3.00;;;2.00;;
11675;SDS011;5894;42.768;23.404;2023-06-10T12:11:20;2.72;;;2.53;;
11675;SDS011;5894;42.768;23.404;2023-06-10T12:13:48;3.92;;;2.80;;
11675;SDS011;5894;42.768;23.404;2023-06-10T12:16:16;3.95;;;2.60;;
11675;SDS011;5894;42.768;23.404;2023-06-10T12:18:44;5.75;;;2.58;;
11675;SDS011;5894;42.768;23.404;2023-06-10T12:21:16;2.97;;;2.70;;
11675;SDS011;5894;42.768;23.404;2023-06-10T12:24:04;3.40;;;2.45;;
11675;SDS011;5894;42.768;23.404;2023-06-10T12:26:34;3.28;;;2.30;;
11675;SDS011;5894;42.768;23.404;2023-06-10T12:29:20;2.42;;;2.20;;
11675;SDS011;5894;42.768;23.404;2023-06-10T12:31:57;4.72;;;3.30;;
11675;SDS011;5894;42.768;23.404;2023-06-10T12:34:35;17.75;;;16.02;;
11675;SDS011;5894;42.768;23.404;2023-06-10T12:37:09;9.68;;;8.68;;
11675;SDS011;5894;42.768;23.404;2023-06-10T12:39:39;9.18;;;8.27;;
11675;SDS011;5894;42.768;23.404;2023-06-10T12:42:08;5.43;;;4.93;;
11675;SDS011;5894;42.768;23.404;2023-06-10T12:44:40;5.75;;;3.95;;
11675;SDS011;5894;42.768;23.404;2023-06-10T12:47:07;4.07;;;3.20;;
11675;SDS011;5894;42.768;23.404;2023-06-10T12:49:36;2.55;;;2.35;;
11675;SDS011;5894;42.768;23.404;2023-06-10T12:52:05;3.05;;;2.50;;
11675;SDS011;5894;42.768;23.404;2023-06-10T12:54:33;6.70;;;5.30;;
11675;SDS011;5894;42.768;23.404;2023-06-10T12:57:01;2.88;;;2.60;;
11675;SDS011;5894;42.768;23.404;2023-06-10T12:59:29;2.80;;;2.60;;
11675;SDS011;5894;42.768;23.404;2023-06-10T13:01:57;2.60;;;2.40;;
11675;SDS011;5894;42.768;23.404;2023-06-10T13:04:24;4.53;;;2.50;;
11675;SDS011;5894;42.768;23.404;2023-06-10T13:06:52;2.85;;;2.65;;
11675;SDS011;5894;42.768;23.404;2023-06-10T13:09:21;2.60;;;2.40;;
11675;SDS011;5894;42.768;23.404;2023-06-10T13:11:48;3.05;;;2.75;;
11675;SDS011;5894;42.768;23.404;2023-06-10T13:14:15;4.68;;;2.72;;
11675;SDS011;5894;42.768;23.404;2023-06-10T13:16:42;3.55;;;2.80;;
11675;SDS011;5894;42.768;23.404;2023-06-10T13:19:10;4.70;;;3.10;;
11675;SDS011;5894;42.768;23.404;2023-06-10T13:21:37;4.20;;;2.72;;
11675;SDS011;5894;42.768;23.404;2023-06-10T13:24:04;2.95;;;2.50;;
11675;SDS011;5894;42.768;23.404;2023-06-10T13:26:33;3.22;;;2.75;;
11675;SDS011;5894;42.768;23.404;2023-06-10T13:29:00;5.07;;;2.80;;
11675;SDS011;5894;42.768;23.404;2023-06-10T13:31:27;3.60;;;2.72;;
11675;SDS011;5894;42.768;23.404;2023-06-10T13:33:54;5.80;;;3.13;;
11675;SDS011;5894;42.768;23.404;2023-06-10T13:36:21;5.13;;;3.30;;
11675;SDS011;5894;42.768;23.404;2023-06-10T13:38:48;4.88;;;3.33;;
11675;SDS011;5894;42.768;23.404;2023-06-10T13:41:15;7.85;;;3.35;;
11675;SDS011;5894;42.768;23.404;2023-06-10T13:43:43;6.50;;;3.60;;
11675;SDS011;5894;42.768;23.404;2023-06-10T13:46:11;6.68;;;3.60;;
11675;SDS011;5894;42.768;23.404;2023-06-10T13:48:38;6.65;;;4.10;;
11675;SDS011;5894;42.768;23.404;2023-06-10T13:51:05;5.93;;;4.00;;
11675;SDS011;5894;42.768;23.404;2023-06-10T13:53:34;4.25;;;3.50;;
11675;SDS011;5894;42.768;23.404;2023-06-10T13:56:01;4.68;;;4.15;;
11675;SDS011;5894;42.768;23.404;2023-06-10T13:58:28;7.55;;;4.50;;
11675;SDS011;5894;42.768;23.404;2023-06-10T14:00:56;4.30;;;3.90;;
11675;SDS011;5894;42.768;23.404;2023-06-10T14:03:23;6.22;;;3.33;;
11675;SDS011;5894;42.768;23.404;2023-06-10T14:05:51;6.38;;;3.42;;
11675;SDS011;5894;42.768;23.404;2023-06-10T14:08:18;4.50;;;3.63;;
11675;SDS011;5894;42.768;23.404;2023-06-10T14:10:46;5.50;;;3.35;;
11675;SDS011;5894;42.768;23.404;2023-06-10T14:13:13;4.40;;;3.70;;
11675;SDS011;5894;42.768;23.404;2023-06-10T14:15:42;4.88;;;3.17;;
11675;SDS011;5894;42.768;23.404;2023-06-10T14:18:10;4.80;;;3.38;;
11675;SDS011;5894;42.768;23.404;2023-06-10T14:20:37;5.43;;;3.80;;
11675;SDS011;5894;42.768;23.404;2023-06-10T14:23:04;4.90;;;3.33;;
11675;SDS011;5894;42.768;23.404;2023-06-10T14:25:31;3.65;;;3.35;;
11675;SDS011;5894;42.768;23.404;2023-06-10T14:27:58;5.18;;;3.58;;
11675;SDS011;5894;42.768;23.404;2023-06-10T14:30:26;4.90;;;3.50;;
11675;SDS011;5894;42.768;23.404;2023-06-10T14:32:53;4.88;;;3.60;;
11675;SDS011;5894;42.768;23.404;2023-06-10T14:35:21;4.65;;;3.50;;
11675;SDS011;5894;42.768;23.404;2023-06-10T14:37:48;4.50;;;3.75;;
11675;SDS011;5894;42.768;23.404;2023-06-10T14:40:15;3.90;;;3.47;;
11675;SDS011;5894;42.768;23.404;2023-06-10T14:42:42;3.30;;;3.00;;
11675;SDS011;5894;42.768;23.404;2023-06-10T14:45:09;6.78;;;3.63;;
11675;SDS011;5894;42.768;23.404;2023-06-10T14:47:36;6.18;;;3.58;;
11675;SDS011;5894;42.768;23.404;2023-06-10T14:50:03;8.05;;;4.55;;
11675;SDS011;5894;42.768;23.404;2023-06-10T14:52:32;7.80;;;5.40;;
11675;SDS011;5894;42.768;23.404;2023-06-10T14:55:00;6.97;;;4.70;;
11675;SDS011;5894;42.768;23.404;2023-06-10T14:57:28;3.58;;;3.28;;
11675;SDS011;5894;42.768;23.404;2023-06-10T14:59:55;3.95;;;3.13;;
11675;SDS011;5894;42.768;23.404;2023-06-10T15:02:22;4.28;;;3.30;;
11675;SDS011;5894;42.768;23.404;2023-06-10T15:04:50;6.28;;;3.13;;
11675;SDS011;5894;42.768;23.404;2023-06-10T15:07:17;4.15;;;3.10;;
11675;SDS011;5894;42.768;23.404;2023-06-10T15:09:46;7.55;;;3.50;;
11675;SDS011;5894;42.768;23.404;2023-06-10T15:12:13;4.57;;;3.33;;